createdAt,value
2023-01-20T00:02:54.644Z,3.20
2023-01-20T00:07:57.516Z,3.15
2023-01-20T00:13:01.668Z,3.30
2023-01-20T00:18:04.576Z,3.20
2023-01-20T00:23:07.349Z,3.50
2023-01-20T00:28:11.474Z,3.33
2023-01-20T00:33:14.419Z,4.15
2023-01-20T00:38:17.679Z,3.90
2023-01-20T00:43:21.799Z,4.80
2023-01-20T00:48:24.641Z,4.95
2023-01-20T00:53:27.681Z,5.68
2023-01-20T00:58:31.781Z,7.00
2023-01-20T01:03:34.675Z,7.90
2023-01-20T01:08:37.643Z,7.07
2023-01-20T01:13:43.393Z,7.63
2023-01-20T01:18:46.115Z,8.43
2023-01-20T01:23:48.888Z,9.35
2023-01-20T01:28:53.435Z,9.68
2023-01-20T01:33:56.154Z,11.70
2023-01-20T01:38:59.377Z,11.57
2023-01-20T01:44:10.065Z,12.43
2023-01-20T01:49:18.031Z,12.30
2023-01-20T01:54:24.338Z,13.45
2023-01-20T01:59:29.095Z,13.45
2023-01-20T02:04:33.843Z,14.38
2023-01-20T02:09:36.983Z,14.48
2023-01-20T02:14:45.084Z,16.48
2023-01-20T02:20:32.020Z,17.20
2023-01-20T02:25:57.610Z,17.13
2023-01-20T02:31:37.450Z,18.42
2023-01-20T02:36:46.249Z,19.60
2023-01-20T02:41:56.939Z,20.13
2023-01-20T02:47:04.035Z,20.48
2023-01-20T02:52:15.838Z,24.27
2023-01-20T02:57:24.969Z,23.30
2023-01-20T03:02:30.467Z,23.17
2023-01-20T03:07:37.251Z,22.83
2023-01-20T03:12:46.698Z,23.52
2023-01-20T03:17:49.493Z,23.02
2023-01-20T03:22:53.634Z,23.05
2023-01-20T03:27:56.367Z,23.88
2023-01-20T03:32:59.989Z,24.98
2023-01-20T03:38:04.195Z,24.60
2023-01-20T03:43:14.381Z,23.80
2023-01-20T03:48:24.855Z,24.33
2023-01-20T03:53:35.140Z,23.88
2023-01-20T03:58:41.737Z,23.98
2023-01-20T04:03:47.360Z,24.25
2023-01-20T04:08:56.868Z,24.08
2023-01-20T04:13:59.817Z,22.42
2023-01-20T04:19:02.539Z,22.38
2023-01-20T04:24:15.725Z,20.63
2023-01-20T04:29:18.444Z,21.08
2023-01-20T04:34:21.267Z,20.38
2023-01-20T04:39:25.464Z,19.73
2023-01-20T04:44:28.217Z,20.23
2023-01-20T04:49:30.952Z,18.67
2023-01-20T04:54:35.366Z,18.45
2023-01-20T04:59:38.207Z,19.10
2023-01-20T05:04:40.998Z,17.83
2023-01-20T05:09:45.228Z,17.70
2023-01-20T05:14:48.056Z,17.92
2023-01-20T05:19:50.808Z,17.88
2023-01-20T05:24:54.875Z,16.90
2023-01-20T05:29:57.778Z,16.30
2023-01-20T05:35:00.540Z,18.67
2023-01-20T05:40:05.013Z,15.25
2023-01-20T05:45:09.249Z,15.40
2023-01-20T05:50:13.931Z,16.33
2023-01-20T05:55:18.101Z,16.10
2023-01-20T06:00:21.660Z,15.27
2023-01-20T06:05:24.426Z,16.15
2023-01-20T06:10:28.838Z,15.65
2023-01-20T06:15:32.055Z,16.02
2023-01-20T06:20:34.758Z,16.08
2023-01-20T06:25:38.909Z,15.40
2023-01-20T06:30:43.158Z,15.40
2023-01-20T06:35:45.969Z,15.07
2023-01-20T06:40:50.149Z,15.27
2023-01-20T06:45:52.996Z,15.18
2023-01-20T06:51:01.124Z,16.52
2023-01-20T06:56:05.898Z,15.95
2023-01-20T07:01:10.088Z,16.30
2023-01-20T07:06:17.947Z,15.75
2023-01-20T07:11:22.121Z,14.90
2023-01-20T07:16:24.871Z,15.05
2023-01-20T07:21:27.832Z,14.93
2023-01-20T07:26:32.363Z,15.48
2023-01-20T07:31:35.276Z,15.75
2023-01-20T07:36:38.081Z,14.98
2023-01-20T07:41:43.770Z,15.00
2023-01-20T07:46:46.481Z,15.40
2023-01-20T07:51:49.543Z,15.13
2023-01-20T07:56:53.620Z,15.27
2023-01-20T08:01:56.867Z,13.98
2023-01-20T08:06:59.673Z,13.90
2023-01-20T08:12:03.811Z,14.45
2023-01-20T08:17:06.660Z,13.43
2023-01-20T08:22:09.415Z,12.85
2023-01-20T08:27:13.516Z,12.38
2023-01-20T08:32:16.236Z,13.13
2023-01-20T08:37:19.124Z,12.68
2023-01-20T08:42:23.172Z,11.55
2023-01-20T08:47:25.963Z,12.57
2023-01-20T08:52:28.721Z,12.07
2023-01-20T08:57:32.929Z,12.23
2023-01-20T09:02:35.778Z,12.38
2023-01-20T09:07:38.613Z,12.80
2023-01-20T09:12:42.993Z,11.02
2023-01-20T09:17:45.725Z,10.95
2023-01-20T09:22:48.676Z,12.25
2023-01-20T09:27:52.757Z,10.48
2023-01-20T09:32:57.670Z,12.90
2023-01-20T09:38:14.323Z,12.02
2023-01-20T09:43:49.190Z,12.45
2023-01-20T09:49:18.926Z,11.82
2023-01-20T09:54:26.530Z,10.77
2023-01-20T09:59:37.758Z,11.13
2023-01-20T10:04:44.965Z,11.55
2023-01-20T10:09:53.927Z,10.40
2023-01-20T10:15:08.567Z,11.27
2023-01-20T10:20:15.848Z,9.80
2023-01-20T10:25:23.570Z,10.50
2023-01-20T10:30:32.540Z,10.87
2023-01-20T10:35:38.368Z,10.18
2023-01-20T10:40:45.725Z,10.75
2023-01-20T10:46:07.838Z,10.73
2023-01-20T10:51:20.833Z,10.60
2023-01-20T10:56:37.895Z,10.32
2023-01-20T11:01:42.973Z,10.65
2023-01-20T11:06:47.241Z,10.20
2023-01-20T11:11:49.960Z,10.25
2023-01-20T11:17:01.304Z,9.52
2023-01-20T11:22:12.146Z,9.80
2023-01-20T11:27:19.414Z,9.85
2023-01-20T11:32:29.793Z,9.15
2023-01-20T11:37:41.487Z,9.45
2023-01-20T11:42:46.151Z,9.60
2023-01-20T11:48:04.475Z,9.38
2023-01-20T11:53:24.702Z,9.63
2023-01-20T11:58:29.291Z,10.07
2023-01-20T12:04:11.545Z,9.30
2023-01-20T12:09:17.431Z,11.40
2023-01-20T12:14:25.345Z,10.52
2023-01-20T12:19:37.939Z,10.18
2023-01-20T12:25:10.850Z,9.77
2023-01-20T12:30:33.121Z,9.65
2023-01-20T12:35:45.482Z,9.55
2023-01-20T12:40:52.223Z,9.50
2023-01-20T12:46:07.180Z,10.65
2023-01-20T12:51:29.612Z,9.90
2023-01-20T12:56:41.120Z,10.07
2023-01-20T13:01:51.556Z,10.13
2023-01-20T13:07:10.506Z,8.93
2023-01-20T13:12:33.929Z,9.77
2023-01-20T13:17:42.897Z,9.57
2023-01-20T13:22:47.198Z,9.48
2023-01-20T13:27:54.346Z,10.00
2023-01-20T13:33:05.919Z,9.63
2023-01-20T13:38:22.080Z,11.27
2023-01-20T13:43:37.088Z,9.82
2023-01-20T13:49:05.143Z,10.40
2023-01-20T13:54:42.234Z,9.77
2023-01-20T13:59:44.927Z,10.00
2023-01-20T14:04:48.074Z,8.55
2023-01-20T14:09:56.361Z,9.43
2023-01-20T14:14:59.110Z,9.75
2023-01-20T14:20:02.366Z,9.73
2023-01-20T14:25:21.655Z,8.75
2023-01-20T14:30:26.473Z,9.82
2023-01-20T14:35:32.242Z,8.88
2023-01-20T14:40:36.705Z,9.25
2023-01-20T14:45:43.380Z,9.15
2023-01-20T14:50:50.849Z,8.85
2023-01-20T14:56:01.466Z,9.05
2023-01-20T15:01:06.054Z,9.00
2023-01-20T15:06:20.946Z,9.57
2023-01-20T15:11:28.381Z,9.25
2023-01-20T15:16:33.318Z,9.13
2023-01-20T15:21:36.714Z,9.10
2023-01-20T15:26:40.980Z,9.30
2023-01-20T15:31:43.913Z,8.88
2023-01-20T15:36:47.830Z,9.73
2023-01-20T15:41:54.763Z,10.05
2023-01-20T15:46:57.884Z,9.60
2023-01-20T15:52:00.656Z,8.73
2023-01-20T15:57:06.538Z,9.80
2023-01-20T16:02:18.252Z,9.50
2023-01-20T16:07:22.136Z,8.73
2023-01-20T16:12:26.242Z,10.20
2023-01-20T16:17:31.359Z,10.13
2023-01-20T16:22:34.077Z,12.27
2023-01-20T16:27:38.125Z,12.00
2023-01-20T16:32:40.910Z,12.18
2023-01-20T16:37:47.430Z,12.50
2023-01-20T16:42:51.499Z,12.23
2023-01-20T16:47:54.635Z,13.10
2023-01-20T16:52:57.750Z,13.93
2023-01-20T16:58:01.893Z,13.15
2023-01-20T17:03:04.759Z,14.15
2023-01-20T17:08:07.535Z,15.13
2023-01-20T17:13:11.678Z,14.85
2023-01-20T17:18:14.395Z,17.35
2023-01-20T17:23:17.169Z,19.05
2023-01-20T17:28:21.221Z,20.80
2023-01-20T17:33:23.957Z,20.17
2023-01-20T17:38:28.178Z,20.10
2023-01-20T17:43:37.094Z,20.17
2023-01-20T17:48:39.919Z,19.75
2023-01-20T17:53:43.387Z,20.15
2023-01-20T17:58:48.842Z,19.63
2023-01-20T18:03:53.327Z,20.88
2023-01-20T18:08:58.218Z,20.67
2023-01-20T18:14:03.930Z,19.58
2023-01-20T18:19:06.726Z,23.42
2023-01-20T18:24:12.643Z,20.08
2023-01-20T18:29:18.055Z,19.73
2023-01-20T18:34:21.985Z,20.40
2023-01-20T18:39:26.922Z,19.80
2023-01-20T18:44:31.043Z,18.48
2023-01-20T18:49:33.934Z,19.17
2023-01-20T18:54:38.460Z,18.95
2023-01-20T18:59:42.961Z,18.35
2023-01-20T19:04:45.978Z,17.88
2023-01-20T19:09:48.812Z,19.42
2023-01-20T19:14:54.727Z,20.48
2023-01-20T19:19:57.589Z,18.50
2023-01-20T19:25:00.374Z,17.90
2023-01-20T19:30:05.389Z,19.10
2023-01-20T19:35:09.230Z,19.40
2023-01-20T19:40:12.734Z,18.45
2023-01-20T19:45:17.229Z,18.15
2023-01-20T19:50:19.996Z,19.13
2023-01-20T19:55:22.811Z,18.30
2023-01-20T20:00:26.898Z,18.55
2023-01-20T20:05:29.882Z,18.67
2023-01-20T20:10:32.936Z,20.33
2023-01-20T20:15:37.162Z,18.38
2023-01-20T20:20:39.900Z,18.35
2023-01-20T20:25:49.743Z,17.42
2023-01-20T20:30:55.442Z,17.90
2023-01-20T20:35:58.329Z,18.38
2023-01-20T20:41:01.733Z,17.67
2023-01-20T20:46:09.205Z,18.08
2023-01-20T20:51:14.536Z,16.95
2023-01-20T20:56:17.910Z,17.23
2023-01-20T21:01:22.091Z,17.27
2023-01-20T21:06:24.949Z,18.23
2023-01-20T21:11:28.025Z,18.88
2023-01-20T21:16:32.376Z,19.35
2023-01-20T21:21:35.299Z,18.20
2023-01-20T21:26:38.210Z,19.02
2023-01-20T21:31:42.376Z,19.00
2023-01-20T21:36:45.145Z,17.50
2023-01-20T21:41:47.995Z,20.55
2023-01-20T21:46:52.157Z,17.17
2023-01-20T21:52:12.610Z,17.73
2023-01-20T21:57:15.720Z,19.10
2023-01-20T22:02:20.149Z,18.23
2023-01-20T22:07:24.408Z,17.85
2023-01-20T22:12:27.160Z,17.17
2023-01-20T22:17:32.475Z,17.25
2023-01-20T22:22:35.332Z,17.13
2023-01-20T22:27:38.182Z,16.10
2023-01-20T22:32:42.286Z,17.15
2023-01-20T22:37:45.314Z,15.63
2023-01-20T22:42:48.297Z,16.30
2023-01-20T22:47:52.602Z,16.20
2023-01-20T22:52:55.490Z,13.93
2023-01-20T22:57:59.902Z,13.98
2023-01-20T23:03:04.244Z,13.07
2023-01-20T23:08:06.989Z,14.48
2023-01-20T23:13:09.735Z,12.95
2023-01-20T23:18:13.855Z,12.75
2023-01-20T23:23:16.834Z,12.38
2023-01-20T23:28:19.707Z,10.48
2023-01-20T23:33:23.841Z,10.90
2023-01-20T23:38:26.604Z,11.55
2023-01-20T23:43:29.391Z,9.73
2023-01-20T23:48:34.679Z,11.70
2023-01-20T23:53:40.313Z,11.25
2023-01-20T23:58:43.346Z,11.57
